createdAt,value
2023-03-31T00:00:12.284Z,6
2023-03-31T00:02:42.797Z,5
2023-03-31T00:05:13.239Z,4
2023-03-31T00:07:43.756Z,5
2023-03-31T00:10:18.441Z,7
2023-03-31T00:12:44.863Z,7
2023-03-31T00:15:15.311Z,5
2023-03-31T00:17:45.881Z,7
2023-03-31T00:20:16.358Z,5
2023-03-31T00:22:46.867Z,5
2023-03-31T00:25:17.102Z,5
2023-03-31T00:27:47.588Z,6
2023-03-31T00:30:17.843Z,3
2023-03-31T00:32:48.386Z,7
2023-03-31T00:35:18.897Z,4
2023-03-31T00:37:49.453Z,5
2023-03-31T00:40:19.968Z,5
2023-03-31T00:42:50.447Z,4
2023-03-31T00:45:20.970Z,3
2023-03-31T00:47:51.578Z,4
2023-03-31T00:50:22.093Z,4
2023-03-31T00:52:52.535Z,4
2023-03-31T00:55:23.079Z,5
2023-03-31T00:57:53.578Z,3
2023-03-31T01:00:24.183Z,4
2023-03-31T01:02:54.674Z,5
2023-03-31T01:05:25.163Z,4
2023-03-31T01:07:55.688Z,4
2023-03-31T01:10:26.256Z,5
2023-03-31T01:12:56.763Z,5
2023-03-31T01:15:27.315Z,5
2023-03-31T01:17:57.952Z,3
2023-03-31T01:20:28.405Z,4
2023-03-31T01:22:58.936Z,5
2023-03-31T01:25:29.518Z,3
2023-03-31T01:28:00.039Z,3
2023-03-31T01:30:30.575Z,3
2023-03-31T01:33:01.136Z,5
2023-03-31T01:35:31.728Z,5
2023-03-31T01:38:02.215Z,4
2023-03-31T01:40:32.773Z,5
2023-03-31T01:43:03.302Z,5
2023-03-31T01:45:34.055Z,4
2023-03-31T01:48:04.628Z,5
2023-03-31T01:50:34.944Z,4
2023-03-31T01:53:05.471Z,4
2023-03-31T01:55:36.056Z,4
2023-03-31T01:58:06.583Z,5
2023-03-31T02:00:37.144Z,4
2023-03-31T02:03:08.021Z,4
2023-03-31T02:05:38.275Z,4
2023-03-31T02:08:08.786Z,4
2023-03-31T02:10:39.474Z,5
2023-03-31T02:13:10.001Z,3
2023-03-31T02:15:40.446Z,4
2023-03-31T02:18:11.074Z,3
2023-03-31T02:20:41.539Z,4
2023-03-31T02:23:12.057Z,3
2023-03-31T02:25:42.664Z,3
2023-03-31T02:28:13.147Z,4
2023-03-31T02:30:43.722Z,4
2023-03-31T02:33:14.228Z,2
2023-03-31T02:35:44.916Z,5
2023-03-31T02:38:15.321Z,3
2023-03-31T02:40:45.911Z,5
2023-03-31T02:43:16.414Z,3
2023-03-31T02:45:47.110Z,3
2023-03-31T02:48:17.582Z,3
2023-03-31T02:50:48.088Z,5
2023-03-31T02:53:18.595Z,4
2023-03-31T02:55:49.154Z,3
2023-03-31T02:58:19.662Z,5
2023-03-31T03:00:50.294Z,4
2023-03-31T03:03:20.821Z,3
2023-03-31T03:05:51.342Z,1
2023-03-31T03:08:21.840Z,4
2023-03-31T03:10:52.443Z,4
2023-03-31T03:13:22.952Z,5
2023-03-31T03:15:53.512Z,4
2023-03-31T03:18:24.062Z,5
2023-03-31T03:20:54.623Z,6
2023-03-31T03:23:24.903Z,4
2023-03-31T03:25:55.365Z,5
2023-03-31T03:28:25.960Z,4
2023-03-31T03:30:56.449Z,7
2023-03-31T03:33:26.955Z,6
2023-03-31T03:35:57.561Z,5
2023-03-31T03:38:28.044Z,6
2023-03-31T03:40:58.621Z,6
2023-03-31T03:43:29.260Z,5
2023-03-31T03:45:59.740Z,8
2023-03-31T03:48:30.254Z,6
2023-03-31T03:51:00.838Z,6
2023-03-31T03:53:31.376Z,8
2023-03-31T03:56:01.926Z,5
2023-03-31T03:58:32.584Z,8
2023-03-31T04:01:02.732Z,5
2023-03-31T04:03:33.243Z,6
2023-03-31T04:06:04.331Z,5
2023-03-31T04:08:34.326Z,5
2023-03-31T04:11:04.901Z,6
2023-03-31T04:13:35.420Z,6
2023-03-31T04:16:06.258Z,5
2023-03-31T04:18:36.520Z,7
2023-03-31T04:21:07.079Z,6
2023-03-31T04:23:37.606Z,6
2023-03-31T04:26:08.377Z,5
2023-03-31T04:28:38.772Z,6
2023-03-31T04:31:09.246Z,4
2023-03-31T04:33:39.829Z,5
2023-03-31T04:36:10.396Z,7
2023-03-31T04:38:40.857Z,4
2023-03-31T04:41:11.437Z,6
2023-03-31T04:43:41.941Z,5
2023-03-31T04:46:12.551Z,5
2023-03-31T04:48:43.056Z,6
2023-03-31T04:51:13.638Z,7
2023-03-31T04:53:44.269Z,7
2023-03-31T04:56:14.757Z,6
2023-03-31T04:58:45.318Z,7
2023-03-31T05:01:15.903Z,7
2023-03-31T05:03:46.483Z,5
2023-03-31T05:06:16.993Z,7
2023-03-31T05:08:47.540Z,7
2023-03-31T05:11:18.126Z,7
2023-03-31T05:13:48.653Z,8
2023-03-31T05:16:19.250Z,6
2023-03-31T05:18:49.869Z,7
2023-03-31T05:21:20.357Z,7
2023-03-31T05:23:50.925Z,7
2023-03-31T05:26:21.511Z,9
2023-03-31T05:28:52.060Z,8
2023-03-31T05:31:22.786Z,7
2023-03-31T05:33:53.258Z,6
2023-03-31T05:36:23.290Z,11
2023-03-31T05:38:54.057Z,10
2023-03-31T05:41:24.663Z,10
2023-03-31T05:43:54.856Z,9
2023-03-31T05:46:25.450Z,11
2023-03-31T05:48:55.956Z,9
2023-03-31T05:51:26.531Z,8
2023-03-31T05:53:57.078Z,10
2023-03-31T05:56:27.668Z,8
2023-03-31T05:58:58.212Z,8
2023-03-31T06:01:28.873Z,10
2023-03-31T06:03:59.400Z,11
2023-03-31T06:06:29.967Z,10
2023-03-31T06:09:00.529Z,12
2023-03-31T06:11:31.116Z,13
2023-03-31T06:14:01.729Z,15
2023-03-31T06:16:32.472Z,12
2023-03-31T06:19:02.885Z,14
2023-03-31T06:21:33.522Z,16
2023-03-31T06:24:04.067Z,15
2023-03-31T06:26:34.287Z,17
2023-03-31T06:29:04.900Z,17
2023-03-31T06:31:35.757Z,19
2023-03-31T06:34:05.903Z,15
2023-03-31T06:36:36.216Z,23
2023-03-31T06:39:06.538Z,14
2023-03-31T06:41:36.737Z,17
2023-03-31T06:44:07.291Z,17
2023-03-31T06:46:37.905Z,15
2023-03-31T06:49:08.169Z,16
2023-03-31T06:51:38.498Z,17
2023-03-31T06:54:08.762Z,17
2023-03-31T06:56:39.257Z,20
2023-03-31T06:59:09.621Z,20
2023-03-31T07:01:39.772Z,20
2023-03-31T07:04:09.854Z,24
2023-03-31T07:06:40.158Z,20
2023-03-31T07:09:10.442Z,20
2023-03-31T07:11:41.071Z,18
2023-03-31T07:14:11.873Z,21
2023-03-31T07:16:42.405Z,19
2023-03-31T07:19:12.414Z,21
2023-03-31T07:21:42.736Z,14
2023-03-31T07:24:12.979Z,15
2023-03-31T07:26:43.294Z,14
2023-03-31T07:29:13.847Z,13
2023-03-31T07:31:44.356Z,12
2023-03-31T07:34:14.586Z,12
2023-03-31T07:36:45.400Z,17
2023-03-31T07:39:15.937Z,15
2023-03-31T07:41:46.232Z,18
2023-03-31T07:44:16.480Z,16
2023-03-31T07:46:46.998Z,17
2023-03-31T07:49:17.535Z,16
2023-03-31T07:51:48.091Z,14
2023-03-31T07:54:18.639Z,15
2023-03-31T07:56:48.892Z,17
2023-03-31T07:59:19.141Z,15
2023-03-31T08:01:50.059Z,15
2023-03-31T08:04:20.228Z,16
2023-03-31T08:06:50.477Z,16
2023-03-31T08:09:21.016Z,19
2023-03-31T08:11:51.617Z,15
2023-03-31T08:14:34.114Z,13
2023-03-31T08:16:52.546Z,15
2023-03-31T08:19:23.042Z,12
2023-03-31T08:21:53.593Z,11
2023-03-31T08:24:24.130Z,10
2023-03-31T08:26:54.348Z,13
2023-03-31T08:29:24.682Z,12
2023-03-31T08:31:55.320Z,11
2023-03-31T08:34:26.064Z,11
2023-03-31T08:36:56.145Z,9
2023-03-31T08:39:26.664Z,9
2023-03-31T08:41:57.209Z,11
2023-03-31T08:44:27.748Z,6
2023-03-31T08:46:58.268Z,8
2023-03-31T08:49:28.810Z,9
2023-03-31T08:51:59.324Z,9
2023-03-31T08:54:29.831Z,9
2023-03-31T08:57:00.398Z,7
2023-03-31T08:59:30.860Z,7
2023-03-31T09:02:01.636Z,6
2023-03-31T09:04:32.008Z,6
2023-03-31T09:07:02.450Z,5
2023-03-31T09:09:33.044Z,8
2023-03-31T09:12:03.202Z,7
2023-03-31T09:14:33.696Z,8
2023-03-31T09:17:04.273Z,9
2023-03-31T09:19:34.704Z,6
2023-03-31T09:22:05.294Z,8
2023-03-31T09:24:35.735Z,6
2023-03-31T09:27:06.252Z,6
2023-03-31T09:29:36.822Z,6
2023-03-31T09:32:07.203Z,3
2023-03-31T09:34:37.673Z,5
2023-03-31T09:37:08.152Z,5
2023-03-31T09:39:38.620Z,5
2023-03-31T09:42:09.139Z,3
2023-03-31T09:44:39.653Z,3
2023-03-31T09:47:11.480Z,4
2023-03-31T09:49:40.458Z,4
2023-03-31T09:52:11.198Z,5
2023-03-31T09:54:41.381Z,10
2023-03-31T09:57:12.004Z,20
2023-03-31T09:59:42.403Z,26
2023-03-31T10:02:12.644Z,29
2023-03-31T10:04:43.168Z,31
2023-03-31T10:07:13.737Z,29
2023-03-31T10:09:44.322Z,30
2023-03-31T10:12:14.875Z,25
2023-03-31T10:14:45.292Z,17
2023-03-31T10:17:15.755Z,10
2023-03-31T10:19:46.240Z,4
2023-03-31T10:22:16.682Z,3
2023-03-31T10:24:47.116Z,2
2023-03-31T10:27:19.534Z,3
2023-03-31T10:29:48.028Z,3
2023-03-31T10:32:18.512Z,3
2023-03-31T10:34:49.015Z,2
2023-03-31T10:37:19.415Z,4
2023-03-31T10:39:49.978Z,3
2023-03-31T10:42:20.346Z,3
2023-03-31T10:44:50.794Z,2
2023-03-31T10:47:21.265Z,3
2023-03-31T10:49:51.725Z,3
2023-03-31T10:52:22.208Z,3
2023-03-31T10:54:52.724Z,2
2023-03-31T10:57:23.188Z,6
2023-03-31T10:59:54.022Z,12
2023-03-31T11:02:24.694Z,20
2023-03-31T11:04:55.164Z,20
2023-03-31T11:07:25.664Z,17
2023-03-31T11:09:56.205Z,19
2023-03-31T11:12:26.687Z,20
2023-03-31T11:14:57.186Z,19
2023-03-31T11:17:27.797Z,18
2023-03-31T11:19:58.191Z,16
2023-03-31T11:22:28.700Z,15
2023-03-31T11:24:59.206Z,13
2023-03-31T11:27:29.694Z,15
2023-03-31T11:30:00.302Z,10
2023-03-31T11:32:31.494Z,8
2023-03-31T11:35:01.084Z,6
2023-03-31T11:37:31.563Z,8
2023-03-31T11:40:02.008Z,8
2023-03-31T11:42:32.492Z,5
2023-03-31T11:45:02.911Z,2
2023-03-31T11:47:33.051Z,2
2023-03-31T11:50:03.449Z,2
2023-03-31T11:52:33.877Z,2
2023-03-31T11:55:04.427Z,3
2023-03-31T11:57:34.822Z,3
2023-03-31T12:00:05.194Z,3
2023-03-31T12:02:35.671Z,3
2023-03-31T12:05:06.078Z,5
2023-03-31T12:07:36.564Z,6
2023-03-31T12:10:07.073Z,6
2023-03-31T12:12:37.463Z,7
2023-03-31T12:15:07.914Z,7
2023-03-31T12:17:38.390Z,8
2023-03-31T12:20:08.813Z,9
2023-03-31T12:22:39.306Z,9
2023-03-31T12:25:09.772Z,10
2023-03-31T12:27:40.271Z,7
2023-03-31T12:30:10.827Z,9
2023-03-31T12:32:41.249Z,12
2023-03-31T12:35:11.760Z,12
2023-03-31T12:37:42.205Z,9
2023-03-31T12:40:12.710Z,9
2023-03-31T12:42:43.164Z,8
2023-03-31T12:45:13.596Z,7
2023-03-31T12:47:44.093Z,4
2023-03-31T12:50:14.229Z,7
2023-03-31T12:52:44.686Z,5
2023-03-31T12:55:15.175Z,4
2023-03-31T12:57:45.576Z,4
2023-03-31T13:00:15.951Z,4
2023-03-31T13:02:46.437Z,4
2023-03-31T13:05:16.890Z,5
2023-03-31T13:07:47.224Z,3
2023-03-31T13:10:17.638Z,4
2023-03-31T13:12:48.047Z,3
2023-03-31T13:15:18.416Z,5
2023-03-31T13:17:48.649Z,5
2023-03-31T13:20:18.937Z,4
2023-03-31T13:22:49.340Z,4
2023-03-31T13:25:19.723Z,3
2023-03-31T13:27:50.219Z,4
2023-03-31T13:30:20.509Z,5
2023-03-31T13:32:50.981Z,3
2023-03-31T13:35:21.327Z,2
2023-03-31T13:37:51.690Z,3
2023-03-31T13:40:22.062Z,4
2023-03-31T13:42:52.609Z,2
2023-03-31T13:45:22.888Z,5
2023-03-31T13:47:53.400Z,4
2023-03-31T13:50:23.634Z,4
2023-03-31T13:52:54.294Z,6
2023-03-31T13:55:25.037Z,3
2023-03-31T13:57:55.443Z,2
2023-03-31T14:00:25.729Z,2
2023-03-31T14:02:56.156Z,3
2023-03-31T14:05:26.475Z,4
2023-03-31T14:07:56.870Z,5
2023-03-31T14:10:27.237Z,2
2023-03-31T14:12:57.669Z,2
2023-03-31T14:15:28.029Z,2
2023-03-31T14:17:58.453Z,3
2023-03-31T14:20:28.883Z,7
2023-03-31T14:22:59.279Z,5
2023-03-31T14:25:29.674Z,7
2023-03-31T14:28:00.183Z,5
2023-03-31T14:30:30.682Z,6
2023-03-31T14:33:02.158Z,5
2023-03-31T14:35:31.409Z,5
2023-03-31T14:38:01.862Z,4
2023-03-31T14:40:32.277Z,4
2023-03-31T14:43:02.741Z,4
2023-03-31T14:45:33.133Z,5
2023-03-31T14:48:03.582Z,6
2023-03-31T14:50:34.012Z,5
2023-03-31T14:53:04.439Z,3
2023-03-31T14:55:49.360Z,1
2023-03-31T14:58:05.276Z,2
2023-03-31T15:00:35.700Z,2
2023-03-31T15:03:06.134Z,2
2023-03-31T15:05:36.571Z,4
2023-03-31T15:08:06.943Z,1
2023-03-31T15:10:37.463Z,2
2023-03-31T15:13:07.724Z,3
2023-03-31T15:15:38.106Z,1
2023-03-31T15:18:10.053Z,3
2023-03-31T15:20:38.991Z,2
2023-03-31T15:23:09.375Z,2
2023-03-31T15:25:39.728Z,3
2023-03-31T15:28:10.304Z,1
2023-03-31T15:30:40.703Z,3
2023-03-31T15:35:41.366Z,1
2023-03-31T15:38:11.747Z,3
2023-03-31T15:40:42.112Z,2
2023-03-31T15:43:20.126Z,3
2023-03-31T15:45:42.918Z,1
2023-03-31T15:48:13.403Z,2
2023-03-31T15:50:43.733Z,3
2023-03-31T15:53:14.134Z,3
2023-03-31T15:55:44.590Z,3
2023-03-31T15:58:15.022Z,2
2023-03-31T16:00:45.390Z,2
2023-03-31T16:03:15.828Z,1
2023-03-31T16:05:54.411Z,1
2023-03-31T16:08:16.630Z,1
2023-03-31T16:10:47.041Z,1
2023-03-31T16:13:17.485Z,2
2023-03-31T16:15:47.927Z,3
2023-03-31T16:18:18.313Z,1
2023-03-31T16:20:48.711Z,2
2023-03-31T16:23:19.140Z,1
2023-03-31T16:25:49.549Z,1
2023-03-31T16:28:20.084Z,1
2023-03-31T16:30:50.400Z,2
2023-03-31T16:33:20.918Z,1
2023-03-31T16:35:51.250Z,1
2023-03-31T16:38:21.769Z,0
2023-03-31T16:40:52.152Z,1
2023-03-31T16:43:22.623Z,0
2023-03-31T16:45:52.970Z,1
2023-03-31T16:48:23.461Z,0
2023-03-31T16:50:53.803Z,2
2023-03-31T16:53:24.269Z,0
2023-03-31T16:55:54.682Z,0
2023-03-31T16:58:25.186Z,3
2023-03-31T17:00:55.606Z,3
2023-03-31T17:03:26.163Z,1
2023-03-31T17:05:58.985Z,1
2023-03-31T17:08:26.982Z,1
2023-03-31T17:10:57.382Z,2
2023-03-31T17:13:27.957Z,3
2023-03-31T17:16:04.713Z,2
2023-03-31T17:18:28.793Z,2
2023-03-31T17:20:59.197Z,3
2023-03-31T17:23:29.669Z,2
2023-03-31T17:25:59.747Z,2
2023-03-31T17:28:30.222Z,1
2023-03-31T17:31:00.648Z,2
2023-03-31T17:33:31.144Z,1
2023-03-31T17:36:01.547Z,2
2023-03-31T17:38:32.017Z,2
2023-03-31T17:41:02.453Z,2
2023-03-31T17:43:32.927Z,2
2023-03-31T17:46:03.397Z,3
2023-03-31T17:48:33.913Z,2
2023-03-31T17:51:04.252Z,1
2023-03-31T17:53:34.729Z,2
2023-03-31T17:56:05.216Z,2
2023-03-31T17:58:35.672Z,1
2023-03-31T18:01:06.082Z,1
2023-03-31T18:03:36.598Z,1
2023-03-31T18:06:06.992Z,2
2023-03-31T18:08:37.528Z,2
2023-03-31T18:11:07.916Z,0
2023-03-31T18:13:38.619Z,1
2023-03-31T18:18:39.452Z,1
2023-03-31T18:21:09.778Z,1
2023-03-31T18:23:40.270Z,1
2023-03-31T18:26:10.693Z,1
2023-03-31T18:28:41.303Z,1
2023-03-31T18:31:11.659Z,2
2023-03-31T18:33:42.149Z,3
2023-03-31T18:36:12.580Z,1
2023-03-31T18:38:43.035Z,3
2023-03-31T18:41:13.544Z,2
2023-03-31T18:43:44.068Z,2
2023-03-31T18:46:14.454Z,1
2023-03-31T18:48:44.841Z,2
2023-03-31T18:51:15.388Z,2
2023-03-31T18:53:45.742Z,1
2023-03-31T18:56:16.182Z,2
2023-03-31T18:58:46.835Z,3
2023-03-31T19:01:17.181Z,2
2023-03-31T19:03:47.686Z,1
2023-03-31T19:06:18.034Z,0
2023-03-31T19:08:48.525Z,1
2023-03-31T19:11:18.991Z,2
2023-03-31T19:13:49.514Z,1
2023-03-31T19:16:19.974Z,1
2023-03-31T19:18:50.444Z,1
2023-03-31T19:21:20.905Z,1
2023-03-31T19:23:51.399Z,2
2023-03-31T19:26:21.590Z,3
2023-03-31T19:28:52.171Z,2
2023-03-31T19:31:22.570Z,3
2023-03-31T19:33:53.096Z,3
2023-03-31T19:36:23.609Z,1
2023-03-31T19:38:53.998Z,3
2023-03-31T19:41:24.495Z,3
2023-03-31T19:43:54.982Z,2
2023-03-31T19:46:25.525Z,2
2023-03-31T19:48:55.952Z,2
2023-03-31T19:51:26.512Z,2
2023-03-31T19:53:56.950Z,1
2023-03-31T19:56:27.484Z,2
2023-03-31T19:58:58.030Z,3
2023-03-31T20:01:28.518Z,1
2023-03-31T20:03:58.803Z,2
2023-03-31T20:06:29.149Z,2
2023-03-31T20:08:59.626Z,3
2023-03-31T20:11:30.115Z,2
2023-03-31T20:14:00.625Z,2
2023-03-31T20:16:31.183Z,2
2023-03-31T20:19:01.574Z,2
2023-03-31T20:21:32.147Z,2
2023-03-31T20:24:02.588Z,3
2023-03-31T20:26:33.108Z,1
2023-03-31T20:29:03.648Z,3
2023-03-31T20:31:34.161Z,4
2023-03-31T20:34:04.578Z,2
2023-03-31T20:36:35.065Z,3
2023-03-31T20:39:05.610Z,3
2023-03-31T20:41:36.173Z,3
2023-03-31T20:44:06.731Z,4
2023-03-31T20:46:37.155Z,4
2023-03-31T20:49:07.644Z,2
2023-03-31T20:51:38.148Z,4
2023-03-31T20:54:08.712Z,2
2023-03-31T20:56:39.145Z,3
2023-03-31T20:59:09.699Z,5
2023-03-31T21:01:40.173Z,3
2023-03-31T21:04:10.762Z,3
2023-03-31T21:06:41.244Z,5
2023-03-31T21:09:11.828Z,4
2023-03-31T21:11:42.250Z,4
2023-03-31T21:14:12.815Z,4
2023-03-31T21:16:43.322Z,6
2023-03-31T21:19:13.822Z,6
2023-03-31T21:21:44.323Z,6
2023-03-31T21:24:14.865Z,5
2023-03-31T21:26:45.362Z,5
2023-03-31T21:29:15.925Z,5
2023-03-31T21:31:46.537Z,5
2023-03-31T21:34:16.923Z,6
2023-03-31T21:36:47.423Z,7
2023-03-31T21:39:17.959Z,5
2023-03-31T21:41:48.472Z,6
2023-03-31T21:44:19.033Z,7
2023-03-31T21:46:49.524Z,7
2023-03-31T21:49:20.056Z,6
2023-03-31T21:51:50.581Z,6
2023-03-31T21:54:21.121Z,7
2023-03-31T21:56:51.641Z,7
2023-03-31T21:59:22.186Z,4
2023-03-31T22:01:52.777Z,6
2023-03-31T22:04:23.234Z,6
2023-03-31T22:06:53.713Z,6
2023-03-31T22:09:24.265Z,5
2023-03-31T22:11:54.834Z,7
2023-03-31T22:14:25.287Z,7
2023-03-31T22:16:55.797Z,9
2023-03-31T22:19:26.414Z,7
2023-03-31T22:21:56.847Z,7
2023-03-31T22:24:27.376Z,7
2023-03-31T22:26:57.895Z,8
2023-03-31T22:29:28.429Z,5
2023-03-31T22:31:58.974Z,6
2023-03-31T22:34:29.486Z,8
2023-03-31T22:36:59.998Z,7
2023-03-31T22:39:30.170Z,7
2023-03-31T22:42:00.684Z,7
2023-03-31T22:44:31.229Z,7
2023-03-31T22:47:01.796Z,6
2023-03-31T22:49:32.255Z,5
2023-03-31T22:52:02.788Z,6
2023-03-31T22:54:33.295Z,8
2023-03-31T22:57:03.827Z,7
2023-03-31T22:59:34.501Z,6
2023-03-31T23:02:04.838Z,5
2023-03-31T23:04:35.458Z,5
2023-03-31T23:07:05.879Z,5
2023-03-31T23:09:36.423Z,4
2023-03-31T23:12:06.919Z,5
2023-03-31T23:14:37.528Z,3
2023-03-31T23:17:07.967Z,7
2023-03-31T23:19:38.613Z,5
2023-03-31T23:22:09.012Z,5
2023-03-31T23:24:39.536Z,6
2023-03-31T23:27:10.053Z,5
2023-03-31T23:29:40.590Z,6
2023-03-31T23:32:11.279Z,7
2023-03-31T23:34:41.796Z,3
2023-03-31T23:37:12.113Z,3
2023-03-31T23:39:42.642Z,6
2023-03-31T23:42:13.142Z,4
2023-03-31T23:44:43.691Z,5
2023-03-31T23:47:14.178Z,5
2023-03-31T23:49:44.718Z,6
2023-03-31T23:52:15.218Z,6
2023-03-31T23:54:45.815Z,6
2023-03-31T23:57:16.294Z,5
2023-03-31T23:59:46.870Z,5
